• Join FlightAware (Why Join?)
  • Login
  • US Flag 
03:57PM EDT


 

Airport Tracker/Info


-or-


 

Live Flight TrackerFlight Track Log ✈ N6519N ✈ 06-Jun-2013 ✈ KPAH - KHAO

Flight Track Log - Related Links

Times and Time Zones

All times are in EDT time to prevent confusion due to time zone crossing. See the N6519N flight status page for this flight to view local times or setup timezone preferences in your user account.

Time Position Orientation Groundspeed Altitude Reporting Facility
EDT Latitude Longitude Course Direction KTS MPH feet Rate Location/Type
03:11PM 37.1167 -88.6947 62° Northeast 158 182 2,500  Level Memphis Center
03:12PM 37.1325 -88.6500 66° East 143 165 3,200 660 Climbing Memphis Center
03:13PM 37.1528 -88.6106 57° Northeast 137 158 3,900 720 Climbing Memphis Center
03:14PM 37.1775 -88.5736 50° Northeast 137 158 4,700 900 Climbing Memphis Center
03:15PM 37.1997 -88.5367 53° Northeast 132 152 5,700 780 Climbing Memphis Center
03:16PM 37.2222 -88.4969 55° Northeast 132 152 6,300 720 Climbing Memphis Center
03:17PM 37.2287 -88.4719 62° Northeast  Level FlightAware Approximate
03:17PM 37.2486 -88.4572 50° Northeast 132 152 7,200  Level Memphis Center
03:18PM 37.2708 -88.4150 57° Northeast 132 152 8,000 840 Climbing Memphis Center
03:19PM 37.2953 -88.3728 54° Northeast 137 158 8,900 780 Climbing Memphis Center
03:20PM 37.3217 -88.3303 52° Northeast 137 158 9,600 600 Climbing Memphis Center
03:21PM 37.3458 -88.2856 56° Northeast 137 158 10,200 600 Climbing Memphis Center
03:22PM 37.3700 -88.2406 56° Northeast 148 170 10,800 480 Climbing Memphis Center
03:23PM 37.3800 -88.2139 65° Northeast 161 185 11,000 180 Climbing Indianapolis Center
03:24PM 37.4142 -88.1539 54° Northeast 175 201 11,100  Climbing Indianapolis Center
03:25PM 37.4447 -88.1011 54° Northeast 182 209 11,100 -60 Level Indianapolis Center
03:26PM 37.4722 -88.0525 55° Northeast 174 200 11,000 -60 Descending Indianapolis Center
03:27PM 37.5022 -88.0000 54° Northeast 179 206 11,000  Level Indianapolis Center
03:28PM 37.5297 -87.9500 55° Northeast 175 201 11,000  Level Indianapolis Center
03:29PM 37.5589 -87.8992 54° Northeast 176 203 11,000  Level Indianapolis Center
03:30PM 37.5878 -87.8500 53° Northeast 173 199 11,000  Level Indianapolis Center
03:31PM 37.6200 -87.7914 55° Northeast 173 199 11,000  Level Indianapolis Center
03:32PM 37.6483 -87.7403 55° Northeast 174 200 11,000  Level Indianapolis Center
03:33PM 37.6772 -87.6900 54° Northeast 175 201 11,000  Level Indianapolis Center
03:34PM 37.7042 -87.6403 56° Northeast 172 198 11,000  Level Indianapolis Center
03:35PM 37.7300 -87.5942 55° Northeast 163 188 11,000  Level Indianapolis Center
03:36PM 37.7575 -87.5439 55° Northeast 170 196 11,000  Level Indianapolis Center
03:37PM 37.7847 -87.4961 54° Northeast 172 198 11,000  Level Indianapolis Center
03:38PM 37.8183 -87.4367 54° Northeast 174 200 11,000  Level Indianapolis Center
03:39PM 37.8453 -87.3850 57° Northeast 175 201 11,000  Level Indianapolis Center
03:41PM 37.8742 -87.3361 53° Northeast 173 199 11,000  Level Indianapolis Center
03:42PM 37.9017 -87.2836 56° Northeast 177 204 11,000  Level Indianapolis Center
03:43PM 37.9300 -87.2342 54° Northeast 175 201 11,000  Level Indianapolis Center
03:44PM 37.9575 -87.1839 55° Northeast 174 200 11,000  Level Indianapolis Center
03:45PM 37.9858 -87.1328 55° Northeast 176 203 11,000  Level Indianapolis Center
03:46PM 38.0192 -87.0714 55° Northeast 176 203 11,000  Level Indianapolis Center
03:47PM 38.0475 -87.0214 54° Northeast 175 201 11,000  Level Indianapolis Center
03:48PM 38.0744 -86.9708 56° Northeast 174 200 11,000  Level Indianapolis Center
03:49PM 38.1028 -86.9208 54° Northeast 175 201 11,000  Level Indianapolis Center
03:50PM 38.1297 -86.8706 56° Northeast 174 200 11,000  Level Indianapolis Center
03:51PM 38.1625 -86.8097 56° Northeast 174 200 11,000  Level Indianapolis Center
03:52PM 38.1900 -86.7594 55° Northeast 173 199 11,000  Level Indianapolis Center
03:53PM 38.2167 -86.7100 56° Northeast 171 197 11,000  Level Indianapolis Center
03:54PM 38.2439 -86.6606 55° Northeast 170 196 11,000  Level Indianapolis Center
03:55PM 38.2711 -86.6097 56° Northeast 173 199 11,000  Level Indianapolis Center
03:56PM 38.2983 -86.5589 56° Northeast 174 200 11,000  Level Indianapolis Center
03:57PM 38.3325 -86.4981 54° Northeast 175 201 11,000  Level Indianapolis Center
03:58PM 38.3589 -86.4447 58° Northeast 178 205 11,000  Level Indianapolis Center
03:59PM 38.3878 -86.3928 55° Northeast 179 206 11,000  Level Indianapolis Center
04:00PM 38.4169 -86.3403 55° Northeast 180 207 11,000  Level Indianapolis Center
04:01PM 38.4450 -86.2878 56° Northeast 179 206 11,000  Level Indianapolis Center
04:02PM 38.4742 -86.2350 55° Northeast 182 209 11,000  Level Indianapolis Center
04:03PM 38.5019 -86.1808 57° Northeast 182 209 11,000  Level Indianapolis Center
04:04PM 38.5361 -86.1156 56° Northeast 183 211 11,000  Level Indianapolis Center
04:05PM 38.5656 -86.0608 55° Northeast 184 212 11,000  Level Indianapolis Center
04:06PM 38.5944 -86.0061 56° Northeast 185 213 11,000  Level Indianapolis Center
04:07PM 38.6236 -85.9528 55° Northeast 184 212 11,000  Level Indianapolis Center
04:08PM 38.6514 -85.8983 57° Northeast 183 211 11,000  Level Indianapolis Center
04:09PM 38.6811 -85.8431 55° Northeast 187 215 11,000  Level Indianapolis Center
04:10PM 38.7103 -85.7875 56° Northeast 187 215 11,000  Level Indianapolis Center
04:12PM 38.7453 -85.7225 55° Northeast 185 213 11,000  Level Indianapolis Center
04:13PM 38.7733 -85.6675 57° Northeast 184 212 11,000  Level Indianapolis Center
04:14PM 38.8022 -85.6147 55° Northeast 180 207 11,000  Level Indianapolis Center
04:15PM 38.8303 -85.5594 57° Northeast 184 212 11,000 -120 Level Indianapolis Center
04:16PM 38.8589 -85.5053 56° Northeast 185 213 10,800 -300 Descending Indianapolis Center
04:17PM 38.8883 -85.4458 58° Northeast 195 224 10,400 -480 Descending Indianapolis Center
04:18PM 38.9217 -85.3858 54° Northeast 204 235 9,900 -540 Descending Indianapolis Center
04:19PM 38.9628 -85.3186 52° Northeast 202 232 9,300 -600 Descending Indianapolis Center
04:20PM 38.9942 -85.2592 56° Northeast 199 229 8,700 -660 Descending Indianapolis Center
04:21PM 39.0275 -85.2042 52° Northeast 197 227 8,000 -660 Descending Indianapolis Center
04:22PM 39.0614 -85.1475 52° Northeast 198 228 7,400 -660 Descending Indianapolis Center
04:23PM 39.0939 -85.0969 50° Northeast 186 214 6,700 -720 Descending Indianapolis Center
04:24PM 39.1256 -85.0411 54° Northeast 183 211 6,000 -660 Descending Indianapolis Center
04:25PM 39.1553 -84.9892 54° Northeast 180 207 5,400 -600 Descending Indianapolis Center
04:26PM 39.1847 -84.9386 53° Northeast 178 205 4,800 -540 Descending Indianapolis Center
04:27PM 39.2336 -84.9200 16° North 181 208 4,300 -600 Descending Indianapolis Center
04:29PM 39.3167 -84.9167 North 153 176 3,000 -480 Descending Cincinnati TRACON
04:30PM 39.3333 -84.8667 67° East 137 158 3,000  Level Cincinnati TRACON
04:31PM 39.3667 -84.8500 21° North 132 152 3,000  Level Cincinnati TRACON
04:32PM 39.4000 -84.8167 38° Northeast 133 153 3,000  Level Cincinnati TRACON
04:33PM 39.4167 -84.7667 67° East 135 155 3,000  Level Cincinnati TRACON
04:34PM 39.4167 -84.7167 90° East 145 167 3,000 -300 Level Cincinnati TRACON
04:35PM 39.4000 -84.6833 123° Southeast 156 180 2,500 -360 Descending Cincinnati TRACON
04:36PM 39.4000 -84.6167 90° East 150 173 2,400 -120 Descending Cincinnati TRACON